Time;durP1;ratioP1;P1;durP2;ratioP2;P2;SDS_P1;SDS_P2;PMS_P1;PMS_P2;Temp;Humidity;BMP_temperature;BMP_pressure;BME280_temperature;BME280_humidity;BME280_pressure;Samples;Min_cycle;Max_cycle;Signal;HPM_P1;HPM_P2
2024/01/20 00:00:43;;;;;;;39.37;25.40;;;;;;;4.01;100.00;101523.97;4933576;29;20475;-37
2024/01/20 00:03:11;;;;;;;31.83;24.60;;;;;;;4.01;100.00;101531.88;4932097;29;20497;-37
2024/01/20 00:05:39;;;;;;;27.87;25.07;;;;;;;3.98;100.00;101525.06;4933373;29;20949;-36
2024/01/20 00:08:06;;;;;;;26.20;24.30;;;;;;;3.99;100.00;101542.59;4933887;28;20461;-36
2024/01/20 00:10:34;;;;;;;27.27;24.57;;;;;;;4.00;100.00;101535.50;4933430;29;20440;-37
2024/01/20 00:13:04;;;;;;;25.10;23.07;;;;;;;4.06;100.00;101534.97;4933616;29;20471;-36
2024/01/20 00:15:33;;;;;;;37.63;25.60;;;;;;;4.05;100.00;101520.94;4933188;29;20532;-36
2024/01/20 00:18:01;;;;;;;25.67;23.73;;;;;;;4.08;100.00;101527.75;4932701;28;20468;-36
2024/01/20 00:20:29;;;;;;;30.53;25.00;;;;;;;4.08;100.00;101535.66;4933188;29;20476;-37
2024/01/20 00:22:57;;;;;;;27.93;25.53;;;;;;;4.08;100.00;101527.75;4932714;29;20452;-37
2024/01/20 00:25:25;;;;;;;24.50;22.90;;;;;;;4.07;100.00;101531.34;4933080;29;20439;-38
2024/01/20 00:27:53;;;;;;;31.30;24.87;;;;;;;4.06;100.00;101533.13;4932778;28;20815;-36
2024/01/20 00:30:22;;;;;;;25.73;23.67;;;;;;;4.07;100.00;101545.38;4932712;29;20810;-37
2024/01/20 00:32:51;;;;;;;29.90;26.93;;;;;;;4.09;100.00;101545.25;4932079;29;20452;-37
2024/01/20 00:35:19;;;;;;;28.73;25.97;;;;;;;4.07;100.00;101547.16;4932368;29;20436;-37
2024/01/20 00:37:47;;;;;;;28.23;25.23;;;;;;;4.04;100.00;101542.16;4932617;28;20468;-37
2024/01/20 00:40:15;;;;;;;27.17;24.47;;;;;;;4.04;100.00;101552.72;4932047;29;20479;-37
2024/01/20 00:42:43;;;;;;;27.37;25.07;;;;;;;4.01;100.00;101556.47;4932668;29;20471;-37
2024/01/20 00:45:11;;;;;;;32.63;27.13;;;;;;;4.00;100.00;101554.81;4933436;29;20523;-37
2024/01/20 00:47:39;;;;;;;27.37;24.63;;;;;;;3.96;100.00;101545.50;4932761;28;20469;-36
2024/01/20 00:50:09;;;;;;;29.03;26.40;;;;;;;3.98;100.00;101556.72;4933024;29;20441;-38
2024/01/20 00:52:37;;;;;;;31.63;25.50;;;;;;;3.96;100.00;101549.94;4932288;29;20467;-37
2024/01/20 00:55:06;;;;;;;26.63;24.40;;;;;;;3.98;100.00;101553.25;4933581;29;20448;-36
2024/01/20 00:57:34;;;;;;;27.37;24.60;;;;;;;3.98;100.00;101553.25;4931864;28;20837;-39
2024/01/20 01:00:07;;;;;;;27.40;24.97;;;;;;;3.99;100.00;101568.97;4932586;29;20469;-37
2024/01/20 01:02:35;;;;;;;28.90;26.20;;;;;;;3.99;100.00;101561.06;4931278;29;20476;-37
2024/01/20 01:05:03;;;;;;;27.97;25.33;;;;;;;3.98;100.00;101564.66;4932369;29;20471;-37
2024/01/20 01:07:32;;;;;;;28.43;25.53;;;;;;;3.98;100.00;101558.53;4931205;28;20468;-37
2024/01/20 01:10:01;;;;;;;27.60;24.67;;;;;;;4.01;100.00;101571.47;4933028;29;20512;-40
2024/01/20 01:12:29;;;;;;;27.90;25.03;;;;;;;3.98;100.00;101584.94;4931186;29;20472;-37
2024/01/20 01:14:56;;;;;;;26.80;24.30;;;;;;;4.00;100.00;101568.00;4933174;29;20440;-37
2024/01/20 01:17:24;;;;;;;29.13;24.33;;;;;;;4.02;100.00;101571.34;4932477;28;20476;-37
2024/01/20 01:19:52;;;;;;;28.90;26.30;;;;;;;4.04;100.00;101581.75;4931171;29;20440;-37
2024/01/20 01:22:20;;;;;;;27.80;25.20;;;;;;;4.04;100.00;101579.13;4931460;29;21015;-38
2024/01/20 01:24:49;;;;;;;27.27;24.70;;;;;;;4.04;100.00;101582.59;4931952;29;21046;-39
2024/01/20 01:27:17;;;;;;;27.03;24.60;;;;;;;4.05;100.00;101584.28;4929945;28;20465;-36
2024/01/20 01:29:45;;;;;;;27.60;24.93;;;;;;;4.08;100.00;101580.53;4932733;29;20437;-37
2024/01/20 01:32:13;;;;;;;25.93;23.63;;;;;;;4.10;100.00;101589.13;4931067;29;20504;-37
2024/01/20 01:34:41;;;;;;;25.07;22.73;;;;;;;4.12;100.00;101592.50;4930397;29;20463;-37
2024/01/20 01:37:09;;;;;;;26.23;24.20;;;;;;;4.14;100.00;101587.91;4930182;28;21235;-37
2024/01/20 01:39:37;;;;;;;24.67;22.90;;;;;;;4.12;100.00;101600.41;4930806;29;20477;-38
2024/01/20 01:42:06;;;;;;;26.27;23.70;;;;;;;4.13;100.00;101604.69;4931284;29;20825;-36
2024/01/20 01:44:33;;;;;;;25.83;23.50;;;;;;;4.12;100.00;101606.50;4931733;29;20524;-37
2024/01/20 01:47:02;;;;;;;28.70;26.00;;;;;;;4.10;100.00;101605.81;4930094;28;20457;-37
2024/01/20 01:49:29;;;;;;;29.83;26.90;;;;;;;4.08;100.00;101612.19;4933190;29;20916;-37
2024/01/20 01:51:57;;;;;;;27.10;25.00;;;;;;;4.05;100.00;101620.38;4932037;29;20496;-37
2024/01/20 01:54:25;;;;;;;32.50;26.40;;;;;;;4.04;100.00;101618.69;4930493;29;20453;-37
2024/01/20 01:56:59;;;;;;;35.47;26.07;;;;;;;4.00;100.00;101619.97;4929787;28;21103;-37
2024/01/20 01:59:29;;;;;;;27.30;24.60;;;;;;;4.02;100.00;101626.78;4932742;29;20436;-37
2024/01/20 02:01:57;;;;;;;27.30;24.50;;;;;;;4.00;100.00;101617.31;4931304;29;20531;-36
2024/01/20 02:04:25;;;;;;;25.63;23.60;;;;;;;3.97;100.00;101626.34;4930794;29;20484;-36
2024/01/20 02:06:53;;;;;;;28.83;25.90;;;;;;;3.98;100.00;101627.16;4929655;28;20583;-36
2024/01/20 02:09:22;;;;;;;27.67;23.70;;;;;;;3.97;100.00;101628.13;4930516;29;20444;-37
2024/01/20 02:11:50;;;;;;;29.00;25.70;;;;;;;3.98;100.00;101617.44;4930439;29;20439;-36
2024/01/20 02:14:20;;;;;;;32.10;24.67;;;;;;;3.97;100.00;101633.41;4931034;29;20460;-36
2024/01/20 02:16:49;;;;;;;26.00;23.50;;;;;;;3.96;100.00;101631.72;4930098;28;20516;-37
2024/01/20 02:19:16;;;;;;;30.70;24.60;;;;;;;3.98;100.00;101624.50;4930735;29;20440;-38
2024/01/20 02:21:44;;;;;;;33.90;25.10;;;;;;;3.91;100.00;101632.94;4930562;29;20468;-37
2024/01/20 02:24:13;;;;;;;27.67;25.13;;;;;;;3.95;100.00;101637.97;4932443;29;20495;-36
2024/01/20 02:26:41;;;;;;;27.50;24.53;;;;;;;3.94;100.00;101634.53;4931343;28;20472;-37
2024/01/20 02:29:09;;;;;;;27.90;25.30;;;;;;;3.92;100.00;101631.16;4930814;29;20503;-37
2024/01/20 02:31:38;;;;;;;26.30;24.27;;;;;;;3.89;100.00;101631.41;4930503;29;20440;-37
2024/01/20 02:34:06;;;;;;;26.70;24.80;;;;;;;3.89;100.00;101631.41;4932409;29;20467;-36
2024/01/20 02:36:34;;;;;;;33.77;25.13;;;;;;;3.87;100.00;101636.00;4930994;28;20480;-39
2024/01/20 02:39:02;;;;;;;27.33;24.87;;;;;;;3.86;100.00;101639.59;4932101;29;20439;-37
2024/01/20 02:41:31;;;;;;;28.83;26.13;;;;;;;3.85;100.00;101636.13;4930991;29;20952;-39
2024/01/20 02:43:59;;;;;;;31.67;25.23;;;;;;;3.83;100.00;101651.25;4930266;29;21232;-38
2024/01/20 02:46:26;;;;;;;27.20;24.33;;;;;;;3.84;100.00;101649.47;4931865;28;20496;-37
2024/01/20 02:48:54;;;;;;;37.53;25.97;;;;;;;3.81;100.00;101644.44;4936285;29;20441;-37
2024/01/20 02:51:22;;;;;;;27.37;24.90;;;;;;;3.82;100.00;101646.94;4935850;29;20445;-36
2024/01/20 02:53:50;;;;;;;27.37;24.77;;;;;;;3.83;100.00;101643.34;4934138;29;20471;-37
2024/01/20 02:56:18;;;;;;;26.97;24.67;;;;;;;3.86;100.00;101643.06;4933650;28;20495;-37
2024/01/20 02:58:47;;;;;;;26.50;23.93;;;;;;;3.82;100.00;101646.94;4934259;29;20436;-37
2024/01/20 03:01:15;;;;;;;26.80;24.40;;;;;;;3.85;100.00;101654.59;4935479;29;21298;-37
2024/01/20 03:03:44;;;;;;;29.63;24.97;;;;;;;3.84;100.00;101660.84;4934729;29;21077;-36
2024/01/20 03:06:12;;;;;;;34.07;25.70;;;;;;;3.87;100.00;101667.66;4934435;28;20487;-37
2024/01/20 03:08:40;;;;;;;26.77;24.37;;;;;;;3.87;100.00;101665.88;4934990;29;20440;-37
2024/01/20 03:11:08;;;;;;;27.90;24.97;;;;;;;3.86;100.00;101669.47;4933317;29;20437;-37
2024/01/20 03:13:36;;;;;;;27.33;24.67;;;;;;;3.88;100.00;101666.72;4966819;23;20484;-44
2024/01/20 03:16:05;;;;;;;27.27;24.60;;;;;;;3.87;100.00;101668.50;4918028;28;20465;-44
2024/01/20 03:18:32;;;;;;;31.80;26.33;;;;;;;3.89;100.00;101665.72;4910737;29;20460;-44
2024/01/20 03:21:00;;;;;;;33.77;24.40;;;;;;;3.89;100.00;101671.84;4917996;29;20445;-40
2024/01/20 03:23:28;;;;;;;29.57;26.43;;;;;;;3.89;100.00;101671.84;4917661;29;20532;-43
2024/01/20 03:25:55;;;;;;;30.17;27.07;;;;;;;3.90;100.00;101675.31;4917911;29;20500;-42
2024/01/20 03:28:23;;;;;;;28.37;25.60;;;;;;;3.90;100.00;101676.16;4917906;29;20480;-40
2024/01/20 03:30:51;;;;;;;31.73;26.27;;;;;;;3.89;100.00;101666.56;4917904;29;20446;-41
2024/01/20 03:33:20;;;;;;;27.07;24.50;;;;;;;3.88;100.00;101683.34;4917726;29;20493;-41
2024/01/20 03:35:47;;;;;;;27.63;25.33;;;;;;;3.89;100.00;101676.28;4917516;29;20952;-42
2024/01/20 03:38:15;;;;;;;26.50;24.67;;;;;;;3.92;100.00;101683.94;4917938;29;20452;-44
2024/01/20 03:40:43;;;;;;;27.07;25.03;;;;;;;3.94;100.00;101678.53;4917788;29;20973;-44
2024/01/20 03:43:11;;;;;;;27.60;25.17;;;;;;;3.94;100.00;101691.72;4917340;29;20493;-43
2024/01/20 03:45:40;;;;;;;29.57;26.67;;;;;;;3.95;100.00;101688.94;4917599;29;20441;-42
2024/01/20 03:48:08;;;;;;;29.30;26.20;;;;;;;3.90;100.00;101692.00;4916973;29;21080;-46
2024/01/20 03:50:37;;;;;;;28.00;25.67;;;;;;;3.89;100.00;101692.94;4917663;29;20473;-43
2024/01/20 03:53:05;;;;;;;28.50;25.80;;;;;;;3.90;100.00;101697.28;4917598;29;20989;-43
2024/01/20 03:55:33;;;;;;;29.13;26.13;;;;;;;3.87;100.00;101696.69;4917580;29;20441;-41
2024/01/20 03:58:01;;;;;;;27.53;24.70;;;;;;;3.88;100.00;101693.09;4916053;29;21004;-43
2024/01/20 04:00:29;;;;;;;31.73;24.03;;;;;;;3.88;100.00;101701.81;4917291;29;20951;-43
2024/01/20 04:02:56;;;;;;;26.80;24.23;;;;;;;3.88;100.00;101708.94;4916898;29;20478;-45
2024/01/20 04:05:24;;;;;;;24.50;22.10;;;;;;;3.89;100.00;101710.56;4917638;29;20457;-45
2024/01/20 04:07:53;;;;;;;25.83;23.33;;;;;;;3.90;100.00;101713.09;4917663;29;20510;-43
2024/01/20 04:10:21;;;;;;;26.93;24.90;;;;;;;3.86;100.00;101726.66;4917382;29;20445;-41
2024/01/20 04:12:49;;;;;;;26.97;24.30;;;;;;;3.86;100.00;101711.69;4917013;29;20495;-44
2024/01/20 04:15:17;;;;;;;28.63;23.97;;;;;;;3.84;100.00;101718.91;4917259;29;20493;-43
2024/01/20 04:17:45;;;;;;;26.77;24.13;;;;;;;3.77;100.00;101724.81;4916954;29;20466;-44
2024/01/20 04:20:12;;;;;;;25.67;23.63;;;;;;;3.77;100.00;101720.38;4917058;29;20446;-44
2024/01/20 04:22:40;;;;;;;28.63;24.57;;;;;;;3.73;100.00;101718.13;4916535;29;20488;-44
2024/01/20 04:25:09;;;;;;;27.07;24.30;;;;;;;3.68;100.00;101726.41;4917207;29;20450;-42
2024/01/20 04:27:40;;;;;;;25.70;23.60;;;;;;;3.65;100.00;101723.19;4916975;29;20469;-43
2024/01/20 04:30:09;;;;;;;27.83;23.63;;;;;;;3.62;100.00;101720.81;4916871;29;20937;-41
2024/01/20 04:32:37;;;;;;;27.37;24.00;;;;;;;3.56;100.00;101722.16;4909521;29;20457;-43
2024/01/20 04:35:05;;;;;;;27.13;24.30;;;;;;;3.56;100.00;101726.59;4916768;29;20460;-42
2024/01/20 04:37:33;;;;;;;27.00;24.80;;;;;;;3.53;100.00;101743.50;4916382;29;20829;-44
2024/01/20 04:40:01;;;;;;;28.17;25.20;;;;;;;3.55;100.00;101736.34;4916906;29;20441;-44
2024/01/20 04:42:30;;;;;;;29.20;25.40;;;;;;;3.53;100.00;101727.69;4916113;29;20448;-42
2024/01/20 04:45:00;;;;;;;26.83;24.03;;;;;;;3.53;100.00;101730.31;4916840;29;20441;-42
2024/01/20 04:47:28;;;;;;;27.27;24.67;;;;;;;3.57;100.00;101736.19;4916353;29;20493;-42
2024/01/20 04:49:56;;;;;;;26.87;24.07;;;;;;;3.58;100.00;101738.72;4916755;29;20524;-42
2024/01/20 04:52:23;;;;;;;26.03;23.60;;;;;;;3.63;100.00;101740.97;4916284;29;20473;-43
2024/01/20 04:54:52;;;;;;;27.03;23.43;;;;;;;3.64;100.00;101745.28;4916423;29;20438;-43
2024/01/20 04:57:21;;;;;;;26.47;24.40;;;;;;;3.69;100.00;101733.38;4916136;29;21055;-41
2024/01/20 04:59:50;;;;;;;27.17;23.67;;;;;;;3.71;100.00;101730.59;4916652;29;20489;-41
2024/01/20 05:02:17;;;;;;;26.10;23.07;;;;;;;3.70;100.00;101737.66;4915953;29;20445;-46
2024/01/20 05:04:45;;;;;;;26.03;23.77;;;;;;;3.70;100.00;101748.22;4916401;29;20890;-42
2024/01/20 05:07:13;;;;;;;35.03;25.20;;;;;;;3.72;100.00;101758.66;4915855;29;20489;-46
2024/01/20 05:09:41;;;;;;;37.13;24.50;;;;;;;3.74;100.00;101744.38;4916016;29;20473;-42
2024/01/20 05:12:09;;;;;;;26.37;23.70;;;;;;;3.77;100.00;101744.13;4916237;29;20449;-41
2024/01/20 05:14:36;;;;;;;35.27;25.63;;;;;;;3.77;100.00;101744.13;4916072;29;20473;-42
2024/01/20 05:17:06;;;;;;;27.13;24.70;;;;;;;3.76;100.00;101738.97;4915810;29;20465;-43
2024/01/20 05:19:33;;;;;;;26.57;24.00;;;;;;;3.80;100.00;101746.50;4915429;29;20448;-43
2024/01/20 05:22:02;;;;;;;25.70;23.20;;;;;;;3.81;100.00;101742.91;4914537;29;20815;-42
2024/01/20 05:24:30;;;;;;;26.23;23.47;;;;;;;3.83;100.00;101748.03;4915145;29;20513;-41
2024/01/20 05:26:58;;;;;;;34.13;24.40;;;;;;;3.86;100.00;101745.13;4915343;29;21015;-40
2024/01/20 05:29:25;;;;;;;25.03;23.13;;;;;;;3.88;100.00;101745.88;4915776;29;20473;-41
2024/01/20 05:31:53;;;;;;;25.60;23.20;;;;;;;3.88;100.00;101751.16;4915412;29;20529;-42
2024/01/20 05:34:22;;;;;;;26.37;24.00;;;;;;;3.84;100.00;101740.00;4915498;29;20549;-43
2024/01/20 05:36:50;;;;;;;28.40;23.83;;;;;;;3.84;100.00;101737.38;4915647;29;20520;-42
2024/01/20 05:39:18;;;;;;;27.10;24.33;;;;;;;3.82;100.00;101746.38;4915510;29;20818;-44
2024/01/20 05:41:46;;;;;;;27.00;24.30;;;;;;;3.86;100.00;101763.59;4914622;29;20438;-44
2024/01/20 05:44:13;;;;;;;25.80;23.30;;;;;;;3.82;100.00;101759.56;4915250;29;20580;-42
2024/01/20 05:46:42;;;;;;;34.13;25.27;;;;;;;3.83;100.00;101766.50;4914483;29;20461;-43
2024/01/20 05:49:09;;;;;;;26.90;24.37;;;;;;;3.84;100.00;101760.28;4915024;29;20442;-42
2024/01/20 05:51:38;;;;;;;27.00;24.30;;;;;;;3.80;100.00;101762.31;4915096;29;20825;-42
2024/01/20 05:54:06;;;;;;;27.43;24.80;;;;;;;3.81;100.00;101764.00;4914988;29;20464;-42
2024/01/20 05:56:34;;;;;;;26.60;23.90;;;;;;;3.79;100.00;101758.00;4913718;29;20473;-42
2024/01/20 05:59:02;;;;;;;26.70;24.70;;;;;;;3.79;100.00;101759.84;4914148;29;20537;-43
2024/01/20 06:01:31;;;;;;;27.40;24.77;;;;;;;3.75;100.00;101772.44;4913727;29;21130;-42
2024/01/20 06:03:59;;;;;;;27.70;25.70;;;;;;;3.74;100.00;101767.28;4914084;29;20484;-43
2024/01/20 06:06:26;;;;;;;39.27;25.30;;;;;;;3.67;100.00;101774.88;4914611;29;20465;-44
2024/01/20 06:08:56;;;;;;;27.70;25.10;;;;;;;3.68;100.00;101775.69;4914700;29;20930;-44
2024/01/20 06:11:24;;;;;;;35.00;26.83;;;;;;;3.67;100.00;101772.25;4912411;29;20449;-41
2024/01/20 06:13:52;;;;;;;33.03;25.73;;;;;;;3.63;100.00;101789.28;4915026;29;20957;-43
2024/01/20 06:16:20;;;;;;;39.87;26.60;;;;;;;3.64;100.00;101784.84;4914714;29;20461;-46
2024/01/20 06:18:47;;;;;;;27.63;25.07;;;;;;;3.63;100.00;101784.00;4915109;29;20446;-43
2024/01/20 06:21:21;;;;;;;30.70;26.80;;;;;;;3.67;100.00;101785.44;4915388;29;21017;-41
2024/01/20 06:23:49;;;;;;;33.03;25.60;;;;;;;3.63;100.00;101798.97;4917878;29;20481;-44
2024/01/20 06:26:18;;;;;;;28.93;25.57;;;;;;;3.66;100.00;101796.94;4917163;29;20551;-41
2024/01/20 06:28:46;;;;;;;31.87;23.93;;;;;;;3.67;100.00;101795.16;4910741;29;20441;-42
2024/01/20 06:31:22;;;;;;;27.47;24.80;;;;;;;3.71;100.00;101807.94;4917863;29;20988;-44
2024/01/20 06:33:50;;;;;;;25.63;23.33;;;;;;;3.72;100.00;101820.19;4910441;29;20468;-42
2024/01/20 06:36:18;;;;;;;27.70;25.03;;;;;;;3.73;100.00;101800.72;4917946;29;20500;-42
2024/01/20 06:38:47;;;;;;;30.87;24.10;;;;;;;3.74;100.00;101818.25;4918044;29;20445;-44
2024/01/20 06:41:15;;;;;;;28.13;25.00;;;;;;;3.76;100.00;101828.69;4918085;29;20794;-44
2024/01/20 06:43:44;;;;;;;28.67;25.20;;;;;;;3.79;100.00;101828.44;4910915;29;20576;-43
2024/01/20 06:46:12;;;;;;;28.90;26.20;;;;;;;3.78;100.00;101824.94;4917487;29;20913;-42
2024/01/20 06:48:40;;;;;;;31.00;27.90;;;;;;;3.81;100.00;101822.06;4918202;29;20476;-47
2024/01/20 06:51:14;;;;;;;33.53;26.87;;;;;;;3.83;100.00;101806.94;4917890;29;20445;-45
2024/01/20 06:53:43;;;;;;;27.80;24.80;;;;;;;3.88;100.00;101819.75;4918016;29;20464;-42
2024/01/20 06:56:11;;;;;;;30.20;25.27;;;;;;;3.90;100.00;101821.28;4918019;29;20537;-44
2024/01/20 06:58:39;;;;;;;27.87;24.87;;;;;;;3.94;100.00;101831.59;4918596;29;20455;-47
2024/01/20 07:01:08;;;;;;;29.53;24.47;;;;;;;3.96;100.00;101829.66;4918451;29;20442;-43
2024/01/20 07:03:36;;;;;;;26.63;23.87;;;;;;;3.96;100.00;101833.13;4917426;29;20461;-45
2024/01/20 07:06:07;;;;;;;26.10;23.60;;;;;;;3.96;100.00;101845.50;4917522;29;20813;-45
2024/01/20 07:08:34;;;;;;;26.43;24.20;;;;;;;3.94;100.00;101847.44;4917380;29;20549;-45
2024/01/20 07:11:02;;;;;;;29.70;23.97;;;;;;;3.94;100.00;101842.16;4917757;29;20497;-47
2024/01/20 07:13:30;;;;;;;28.83;24.37;;;;;;;3.97;100.00;101849.81;4917765;29;20533;-45
2024/01/20 07:15:57;;;;;;;26.57;23.50;;;;;;;4.00;100.00;101845.13;4917507;29;20443;-45
2024/01/20 07:18:26;;;;;;;27.33;24.63;;;;;;;3.97;100.00;101849.81;4917394;29;20496;-44
2024/01/20 07:20:54;;;;;;;33.80;25.70;;;;;;;3.99;100.00;101848.72;4917328;29;20445;-46
2024/01/20 07:23:22;;;;;;;31.37;26.00;;;;;;;4.01;100.00;101852.06;4917832;29;20873;-44
2024/01/20 07:25:50;;;;;;;30.33;24.90;;;;;;;4.03;100.00;101854.59;4916946;29;20532;-44
2024/01/20 07:28:17;;;;;;;27.17;24.60;;;;;;;4.02;100.00;101858.19;4917747;29;20790;-45
2024/01/20 07:30:45;;;;;;;29.73;23.30;;;;;;;4.02;100.00;101869.59;4909208;29;20452;-42
2024/01/20 07:33:13;;;;;;;30.47;24.37;;;;;;;4.05;100.00;101868.47;4917018;29;20468;-48
2024/01/20 07:35:42;;;;;;;26.33;23.60;;;;;;;4.05;100.00;101866.69;4917169;29;21081;-44
2024/01/20 07:38:11;;;;;;;28.93;26.17;;;;;;;4.11;100.00;101870.63;4906762;29;20920;-44
2024/01/20 07:40:39;;;;;;;34.03;25.30;;;;;;;4.14;100.00;101878.28;4917291;29;20441;-46
2024/01/20 07:43:07;;;;;;;28.93;23.47;;;;;;;4.15;100.00;101882.59;4916445;29;20462;-44
2024/01/20 07:45:35;;;;;;;25.47;22.70;;;;;;;4.16;100.00;101877.19;4916762;29;20988;-45
2024/01/20 07:48:03;;;;;;;28.23;22.63;;;;;;;4.17;100.00;101878.03;4916899;29;20501;-45
2024/01/20 07:50:31;;;;;;;27.90;21.93;;;;;;;4.20;100.00;101875.13;4917487;29;20445;-46
2024/01/20 07:53:00;;;;;;;28.47;24.03;;;;;;;4.20;100.00;101888.34;4917312;29;20496;-44
2024/01/20 07:55:27;;;;;;;35.53;24.80;;;;;;;4.22;100.00;101892.50;4917375;29;20525;-46
2024/01/20 07:57:55;;;;;;;31.23;24.30;;;;;;;4.22;100.00;101904.88;4917028;29;20528;-44
2024/01/20 08:00:23;;;;;;;26.17;23.70;;;;;;;4.25;100.00;101902.81;4917329;29;20971;-45
2024/01/20 08:02:51;;;;;;;34.73;25.27;;;;;;;4.27;100.00;101910.63;4917201;29;21015;-44
2024/01/20 08:05:19;;;;;;;26.30;24.00;;;;;;;4.29;100.00;101914.81;4917477;29;20568;-44
2024/01/20 08:07:47;;;;;;;25.23;22.90;;;;;;;4.35;100.00;101908.19;4917370;29;20558;-44
2024/01/20 08:10:16;;;;;;;40.17;24.43;;;;;;;4.35;100.00;101908.19;4917630;29;20442;-45
2024/01/20 08:12:44;;;;;;;28.37;25.07;;;;;;;4.35;100.00;101910.81;4916273;29;20468;-42
2024/01/20 08:15:12;;;;;;;29.63;23.60;;;;;;;4.38;100.00;101907.94;4916025;29;20845;-43
2024/01/20 08:17:40;;;;;;;27.50;25.00;;;;;;;4.41;100.00;101918.25;4914643;29;20830;-43
2024/01/20 08:20:11;;;;;;;30.93;23.17;;;;;;;4.43;100.00;101917.13;4910834;29;20501;-42
2024/01/20 08:22:39;;;;;;;26.40;23.70;;;;;;;4.46;100.00;101929.25;4916420;29;20465;-43
2024/01/20 08:25:09;;;;;;;28.53;24.93;;;;;;;4.48;100.00;101929.94;4916616;29;20576;-45
2024/01/20 08:27:38;;;;;;;27.90;25.10;;;;;;;4.46;100.00;101921.31;4915953;29;20468;-42
2024/01/20 08:30:07;;;;;;;30.07;26.40;;;;;;;4.42;100.00;101935.78;4910046;29;20441;-46
2024/01/20 08:32:35;;;;;;;29.40;26.00;;;;;;;4.36;100.00;101944.19;4906819;29;20485;-43
2024/01/20 08:35:03;;;;;;;34.37;26.57;;;;;;;4.30;100.00;101942.06;4905925;29;20498;-44
2024/01/20 08:37:31;;;;;;;34.97;26.77;;;;;;;4.31;100.00;101943.72;4913220;29;20795;-43
2024/01/20 08:39:59;;;;;;;32.80;25.10;;;;;;;4.28;100.00;101943.97;4915795;29;20509;-43
2024/01/20 08:42:26;;;;;;;33.40;25.40;;;;;;;4.24;100.00;101951.31;4915412;29;20541;-45
2024/01/20 08:44:56;;;;;;;28.30;25.30;;;;;;;4.22;100.00;101961.16;4915568;29;20477;-44
2024/01/20 08:47:23;;;;;;;32.40;26.10;;;;;;;4.20;100.00;101954.34;4915798;29;20469;-46
2024/01/20 08:49:52;;;;;;;35.87;27.60;;;;;;;4.23;100.00;101957.56;4915804;29;20920;-43
2024/01/20 08:52:20;;;;;;;35.23;26.27;;;;;;;4.21;100.00;101956.84;4915547;29;21141;-45
2024/01/20 08:54:47;;;;;;;40.87;29.33;;;;;;;4.20;100.00;101970.19;4915375;29;20441;-42
2024/01/20 08:57:15;;;;;;;30.47;27.37;;;;;;;4.18;100.00;101974.75;4915558;29;20553;-41
2024/01/20 08:59:44;;;;;;;33.87;27.83;;;;;;;4.11;100.00;101982.34;4914893;29;20501;-42
2024/01/20 09:02:13;;;;;;;32.47;26.53;;;;;;;4.14;100.00;101983.88;4915258;29;20507;-43
2024/01/20 09:04:40;;;;;;;30.67;27.47;;;;;;;4.16;100.00;101989.88;4914785;29;20465;-42
2024/01/20 09:07:08;;;;;;;33.43;28.10;;;;;;;4.13;100.00;101987.47;4914386;29;20497;-43
2024/01/20 09:09:36;;;;;;;38.37;29.03;;;;;;;4.07;100.00;101994.09;4915488;29;20450;-43
2024/01/20 09:12:04;;;;;;;33.07;28.07;;;;;;;4.09;100.00;101981.59;4915122;29;20438;-43
2024/01/20 09:14:32;;;;;;;48.00;28.40;;;;;;;4.12;100.00;101988.47;4914932;29;20476;-43
2024/01/20 09:17:00;;;;;;;32.97;29.50;;;;;;;4.13;100.00;101995.41;4914830;29;20858;-43
2024/01/20 09:19:29;;;;;;;36.43;29.50;;;;;;;4.13;100.00;102001.50;4915303;29;20865;-45
2024/01/20 09:21:56;;;;;;;32.93;29.63;;;;;;;4.12;100.00;101997.19;4914722;29;20445;-42
2024/01/20 09:24:24;;;;;;;34.10;29.90;;;;;;;4.16;100.00;101997.78;4914745;29;20540;-41
2024/01/20 09:26:52;;;;;;;33.70;30.10;;;;;;;4.25;100.00;102003.16;4907240;29;20478;-41
2024/01/20 09:29:20;;;;;;;38.60;30.77;;;;;;;4.21;100.00;101995.63;4915302;29;20448;-41
2024/01/20 09:31:48;;;;;;;41.63;30.93;;;;;;;4.26;100.00;102010.13;4914457;29;20811;-42
2024/01/20 09:34:16;;;;;;;40.63;30.03;;;;;;;4.31;100.00;102018.50;4914750;29;20457;-42
2024/01/20 09:36:45;;;;;;;40.20;28.80;;;;;;;4.30;100.00;102021.28;4914684;29;20472;-44
2024/01/20 09:39:13;;;;;;;39.37;31.03;;;;;;;4.42;100.00;102022.94;4915125;29;20862;-41
2024/01/20 09:41:41;;;;;;;43.70;30.63;;;;;;;4.50;100.00;102022.28;4914524;29;20851;-45
2024/01/20 09:44:12;;;;;;;40.27;31.50;;;;;;;4.51;100.00;102022.13;4914912;29;20940;-41
2024/01/20 09:46:40;;;;;;;34.07;30.60;;;;;;;4.51;100.00;102045.09;4913915;29;20540;-42
2024/01/20 09:49:08;;;;;;;34.60;31.00;;;;;;;4.49;100.00;102045.22;4914876;29;20456;-42
2024/01/20 09:51:41;;;;;;;37.90;31.27;;;;;;;4.50;100.00;102046.91;4914395;29;20509;-42
2024/01/20 09:54:11;;;;;;;37.67;30.70;;;;;;;4.51;100.00;102047.75;4914787;29;20806;-41
2024/01/20 09:56:38;;;;;;;35.53;29.63;;;;;;;4.47;100.00;102058.56;4913380;29;20473;-41
2024/01/20 09:59:09;;;;;;;35.87;29.53;;;;;;;4.46;100.00;102053.38;4914651;29;20505;-41
2024/01/20 10:01:38;;;;;;;31.30;28.20;;;;;;;4.45;100.00;102062.25;4914286;29;20541;-41
2024/01/20 10:04:07;;;;;;;31.97;28.53;;;;;;;4.48;100.00;102065.50;4914653;29;20894;-43
2024/01/20 10:06:35;;;;;;;35.23;29.30;;;;;;;4.47;100.00;102071.78;4913859;29;20556;-41
2024/01/20 10:09:04;;;;;;;32.87;29.47;;;;;;;4.50;100.00;102081.25;4914493;29;20949;-41
2024/01/20 10:11:33;;;;;;;32.77;29.40;;;;;;;4.57;100.00;102082.41;4913983;29;20453;-42
2024/01/20 10:14:01;;;;;;;35.50;28.60;;;;;;;4.56;100.00;102086.03;4914393;29;20469;-41
2024/01/20 10:16:37;;;;;;;39.70;30.00;;;;;;;4.52;100.00;102086.38;4913829;29;20565;-41
2024/01/20 10:19:05;;;;;;;67.97;29.93;;;;;;;4.50;100.00;102090.97;4914266;29;20873;-41
2024/01/20 10:21:39;;;;;;;38.00;30.37;;;;;;;4.54;100.00;102093.22;4914047;29;20984;-41
2024/01/20 10:24:07;;;;;;;43.83;30.83;;;;;;;4.64;100.00;102093.31;4914474;29;20519;-41
2024/01/20 10:26:43;;;;;;;39.50;28.97;;;;;;;4.72;100.00;102101.47;4914060;29;20499;-41
2024/01/20 10:29:10;;;;;;;33.97;30.30;;;;;;;4.68;100.00;102094.75;4914851;29;20522;-41
2024/01/20 10:31:38;;;;;;;42.47;30.70;;;;;;;4.53;100.00;102093.34;4914675;29;20437;-41
2024/01/20 10:34:06;;;;;;;40.43;31.77;;;;;;;4.56;100.00;102101.88;4914875;29;20878;-42
2024/01/20 10:36:34;;;;;;;34.20;30.07;;;;;;;4.53;100.00;102098.63;4913229;29;20473;-42
2024/01/20 10:39:04;;;;;;;35.73;32.00;;;;;;;4.54;100.00;102109.06;4914515;29;20802;-42
2024/01/20 10:41:38;;;;;;;34.63;30.60;;;;;;;4.53;100.00;102106.56;4912977;29;20500;-42
2024/01/20 10:44:10;;;;;;;32.77;29.63;;;;;;;4.54;100.00;102106.44;4914063;29;20461;-41
2024/01/20 10:46:40;;;;;;;34.90;30.60;;;;;;;4.49;100.00;102108.59;4912559;29;20505;-42
2024/01/20 10:49:11;;;;;;;33.10;29.80;;;;;;;4.58;100.00;102107.03;4913932;29;20952;-42
2024/01/20 10:51:40;;;;;;;32.07;29.00;;;;;;;4.50;100.00;102110.28;4913589;29;21035;-43
2024/01/20 10:54:09;;;;;;;31.70;28.83;;;;;;;4.54;100.00;102116.19;4914414;29;20485;-42
2024/01/20 10:56:37;;;;;;;31.13;28.10;;;;;;;4.53;100.00;102115.34;4913831;29;20465;-42
2024/01/20 10:59:12;;;;;;;31.40;28.20;;;;;;;4.52;100.00;102126.00;4914182;29;20438;-41
2024/01/20 11:01:43;;;;;;;34.73;29.13;;;;;;;4.54;100.00;102122.28;4913727;29;20517;-42
2024/01/20 11:04:11;;;;;;;39.60;31.27;;;;;;;4.53;100.00;102125.91;4914023;29;20510;-41
2024/01/20 11:06:41;;;;;;;35.67;32.00;;;;;;;4.43;100.00;102122.31;4913729;29;20502;-42
2024/01/20 11:09:09;;;;;;;39.90;36.07;;;;;;;4.35;100.00;102133.50;4917831;29;20433;-42
2024/01/20 11:11:37;;;;;;;38.13;34.03;;;;;;;4.23;100.00;102128.34;4916777;29;20472;-43
2024/01/20 11:14:13;;;;;;;41.80;34.60;;;;;;;4.09;100.00;102132.06;4917671;29;20533;-42